Terminal Aerodrome Forecast
Issued by NWS

Home | Current Version | Previous Version | Text Only | Print | Product List | Glossary On
Versions: 1 2 3 4 5 6 7 8 9 10 11 12 13 14 15 16
000
FTUS43 KILX 310700 AAA
TAFBMI
TAF AMD
KBMI 310714Z 3107/0106 19005KT P6SM VCSH BKN008
     FM310900 21005KT 4SM BR BKN008
     FM311400 21008KT P6SM SCT025
     FM010000 18007KT P6SM BKN250=

USA.gov is the U.S. government's official web portal to all federal, state and local government web resources and services.